sensor_id;sensor_type;location;lat;lon;timestamp;P1;durP1;ratioP1;P2;durP2;ratioP2
9716;SDS011;4897;43.570;27.832;2022-11-20T00:01:29;12.55;;;5.43;;
9716;SDS011;4897;43.570;27.832;2022-11-20T00:03:56;12.73;;;5.18;;
9716;SDS011;4897;43.570;27.832;2022-11-20T00:06:25;14.35;;;4.45;;
9716;SDS011;4897;43.570;27.832;2022-11-20T00:08:54;14.95;;;5.20;;
9716;SDS011;4897;43.570;27.832;2022-11-20T00:11:22;14.90;;;5.38;;
9716;SDS011;4897;43.570;27.832;2022-11-20T00:13:51;9.32;;;4.47;;
9716;SDS011;4897;43.570;27.832;2022-11-20T00:16:20;10.40;;;4.72;;
9716;SDS011;4897;43.570;27.832;2022-11-20T00:18:48;17.20;;;4.60;;
9716;SDS011;4897;43.570;27.832;2022-11-20T00:21:16;16.00;;;5.65;;
9716;SDS011;4897;43.570;27.832;2022-11-20T00:23:46;17.25;;;5.13;;
9716;SDS011;4897;43.570;27.832;2022-11-20T00:26:14;13.55;;;5.00;;
9716;SDS011;4897;43.570;27.832;2022-11-20T00:28:42;14.68;;;4.78;;
9716;SDS011;4897;43.570;27.832;2022-11-20T00:31:10;12.90;;;5.35;;
9716;SDS011;4897;43.570;27.832;2022-11-20T00:33:38;13.80;;;4.85;;
9716;SDS011;4897;43.570;27.832;2022-11-20T00:36:06;15.48;;;5.00;;
9716;SDS011;4897;43.570;27.832;2022-11-20T00:38:35;10.93;;;4.43;;
9716;SDS011;4897;43.570;27.832;2022-11-20T00:41:04;10.43;;;4.20;;
9716;SDS011;4897;43.570;27.832;2022-11-20T00:43:32;13.48;;;4.57;;
9716;SDS011;4897;43.570;27.832;2022-11-20T00:46:00;11.70;;;4.65;;
9716;SDS011;4897;43.570;27.832;2022-11-20T00:48:29;16.42;;;4.93;;
9716;SDS011;4897;43.570;27.832;2022-11-20T00:50:56;12.27;;;4.45;;
9716;SDS011;4897;43.570;27.832;2022-11-20T00:53:23;15.25;;;4.15;;
9716;SDS011;4897;43.570;27.832;2022-11-20T00:55:54;12.30;;;4.40;;
9716;SDS011;4897;43.570;27.832;2022-11-20T00:58:24;17.17;;;4.80;;
9716;SDS011;4897;43.570;27.832;2022-11-20T01:00:51;11.50;;;4.32;;
9716;SDS011;4897;43.570;27.832;2022-11-20T01:03:18;13.88;;;4.45;;
9716;SDS011;4897;43.570;27.832;2022-11-20T01:05:45;12.38;;;4.63;;
9716;SDS011;4897;43.570;27.832;2022-11-20T01:08:12;19.13;;;4.90;;
9716;SDS011;4897;43.570;27.832;2022-11-20T01:10:39;11.65;;;4.30;;
9716;SDS011;4897;43.570;27.832;2022-11-20T01:13:06;10.85;;;4.75;;
9716;SDS011;4897;43.570;27.832;2022-11-20T01:15:51;14.45;;;4.28;;
9716;SDS011;4897;43.570;27.832;2022-11-20T01:18:18;14.40;;;4.25;;
9716;SDS011;4897;43.570;27.832;2022-11-20T01:20:45;12.27;;;4.10;;
9716;SDS011;4897;43.570;27.832;2022-11-20T01:23:12;12.90;;;4.47;;
9716;SDS011;4897;43.570;27.832;2022-11-20T01:25:39;13.07;;;4.00;;
9716;SDS011;4897;43.570;27.832;2022-11-20T01:28:05;17.27;;;4.45;;
9716;SDS011;4897;43.570;27.832;2022-11-20T01:30:32;14.40;;;4.43;;
9716;SDS011;4897;43.570;27.832;2022-11-20T01:33:01;11.02;;;3.97;;
9716;SDS011;4897;43.570;27.832;2022-11-20T01:35:28;9.25;;;3.80;;
9716;SDS011;4897;43.570;27.832;2022-11-20T01:37:54;12.80;;;4.00;;
9716;SDS011;4897;43.570;27.832;2022-11-20T01:40:21;13.05;;;4.00;;
9716;SDS011;4897;43.570;27.832;2022-11-20T01:42:52;14.05;;;4.13;;
9716;SDS011;4897;43.570;27.832;2022-11-20T01:45:51;10.93;;;3.30;;
9716;SDS011;4897;43.570;27.832;2022-11-20T01:48:26;12.75;;;3.97;;
9716;SDS011;4897;43.570;27.832;2022-11-20T01:50:56;11.07;;;3.83;;
9716;SDS011;4897;43.570;27.832;2022-11-20T01:53:25;15.18;;;4.20;;
9716;SDS011;4897;43.570;27.832;2022-11-20T01:55:56;8.32;;;2.97;;
9716;SDS011;4897;43.570;27.832;2022-11-20T01:58:27;12.07;;;3.67;;
9716;SDS011;4897;43.570;27.832;2022-11-20T02:00:56;17.08;;;3.80;;
9716;SDS011;4897;43.570;27.832;2022-11-20T02:03:23;11.45;;;3.83;;
9716;SDS011;4897;43.570;27.832;2022-11-20T02:05:53;12.05;;;3.42;;
9716;SDS011;4897;43.570;27.832;2022-11-20T02:08:24;7.50;;;3.20;;
9716;SDS011;4897;43.570;27.832;2022-11-20T02:10:51;10.73;;;3.35;;
9716;SDS011;4897;43.570;27.832;2022-11-20T02:13:18;13.75;;;4.00;;
9716;SDS011;4897;43.570;27.832;2022-11-20T02:16:02;13.60;;;3.35;;
9716;SDS011;4897;43.570;27.832;2022-11-20T02:18:30;13.00;;;4.07;;
9716;SDS011;4897;43.570;27.832;2022-11-20T02:21:01;10.13;;;3.33;;
9716;SDS011;4897;43.570;27.832;2022-11-20T02:23:33;13.05;;;3.30;;
9716;SDS011;4897;43.570;27.832;2022-11-20T02:26:07;13.38;;;3.65;;
9716;SDS011;4897;43.570;27.832;2022-11-20T02:28:37;11.52;;;3.55;;
9716;SDS011;4897;43.570;27.832;2022-11-20T02:31:05;8.45;;;3.30;;
9716;SDS011;4897;43.570;27.832;2022-11-20T02:33:32;10.55;;;3.47;;
9716;SDS011;4897;43.570;27.832;2022-11-20T02:35:59;10.85;;;3.63;;
9716;SDS011;4897;43.570;27.832;2022-11-20T02:38:27;10.00;;;3.35;;
9716;SDS011;4897;43.570;27.832;2022-11-20T02:40:53;12.95;;;3.33;;
9716;SDS011;4897;43.570;27.832;2022-11-20T02:43:22;13.50;;;3.85;;
9716;SDS011;4897;43.570;27.832;2022-11-20T02:45:49;9.70;;;3.72;;
9716;SDS011;4897;43.570;27.832;2022-11-20T02:48:16;7.65;;;3.58;;
9716;SDS011;4897;43.570;27.832;2022-11-20T02:50:43;11.25;;;3.45;;
9716;SDS011;4897;43.570;27.832;2022-11-20T02:53:09;13.32;;;3.70;;
9716;SDS011;4897;43.570;27.832;2022-11-20T02:55:36;9.32;;;3.03;;
9716;SDS011;4897;43.570;27.832;2022-11-20T02:58:03;9.75;;;3.63;;
9716;SDS011;4897;43.570;27.832;2022-11-20T03:00:32;12.30;;;3.50;;
9716;SDS011;4897;43.570;27.832;2022-11-20T03:02:59;10.20;;;3.65;;
9716;SDS011;4897;43.570;27.832;2022-11-20T03:05:26;11.85;;;3.95;;
9716;SDS011;4897;43.570;27.832;2022-11-20T03:07:52;10.43;;;4.00;;
9716;SDS011;4897;43.570;27.832;2022-11-20T03:10:19;12.48;;;3.53;;
9716;SDS011;4897;43.570;27.832;2022-11-20T03:12:46;8.35;;;3.42;;
9716;SDS011;4897;43.570;27.832;2022-11-20T03:15:13;8.80;;;3.40;;
9716;SDS011;4897;43.570;27.832;2022-11-20T03:17:42;8.55;;;3.58;;
9716;SDS011;4897;43.570;27.832;2022-11-20T03:20:09;8.80;;;3.72;;
9716;SDS011;4897;43.570;27.832;2022-11-20T03:22:36;12.07;;;3.78;;
9716;SDS011;4897;43.570;27.832;2022-11-20T03:25:04;11.20;;;3.58;;
9716;SDS011;4897;43.570;27.832;2022-11-20T03:27:32;8.23;;;3.45;;
9716;SDS011;4897;43.570;27.832;2022-11-20T03:30:00;10.25;;;3.58;;
9716;SDS011;4897;43.570;27.832;2022-11-20T03:32:27;13.60;;;4.07;;
9716;SDS011;4897;43.570;27.832;2022-11-20T03:34:56;10.55;;;2.92;;
9716;SDS011;4897;43.570;27.832;2022-11-20T03:37:23;8.02;;;3.00;;
9716;SDS011;4897;43.570;27.832;2022-11-20T03:39:50;8.38;;;3.25;;
9716;SDS011;4897;43.570;27.832;2022-11-20T03:42:16;11.23;;;3.28;;
9716;SDS011;4897;43.570;27.832;2022-11-20T03:45:01;10.85;;;3.30;;
9716;SDS011;4897;43.570;27.832;2022-11-20T03:47:28;10.60;;;3.47;;
9716;SDS011;4897;43.570;27.832;2022-11-20T03:49:56;12.07;;;3.63;;
9716;SDS011;4897;43.570;27.832;2022-11-20T03:52:23;9.85;;;3.42;;
9716;SDS011;4897;43.570;27.832;2022-11-20T03:54:50;6.82;;;3.13;;
9716;SDS011;4897;43.570;27.832;2022-11-20T03:57:17;7.80;;;3.22;;
9716;SDS011;4897;43.570;27.832;2022-11-20T03:59:44;10.02;;;3.30;;
9716;SDS011;4897;43.570;27.832;2022-11-20T04:02:10;17.92;;;4.03;;
9716;SDS011;4897;43.570;27.832;2022-11-20T04:04:37;9.88;;;2.95;;
9716;SDS011;4897;43.570;27.832;2022-11-20T04:07:06;10.32;;;3.30;;
9716;SDS011;4897;43.570;27.832;2022-11-20T04:09:33;16.10;;;3.78;;
9716;SDS011;4897;43.570;27.832;2022-11-20T04:11:59;10.27;;;3.22;;
9716;SDS011;4897;43.570;27.832;2022-11-20T04:14:26;8.30;;;3.25;;
9716;SDS011;4897;43.570;27.832;2022-11-20T04:16:53;12.73;;;3.38;;
9716;SDS011;4897;43.570;27.832;2022-11-20T04:19:20;9.38;;;3.20;;
9716;SDS011;4897;43.570;27.832;2022-11-20T04:21:47;12.02;;;3.42;;
9716;SDS011;4897;43.570;27.832;2022-11-20T04:24:15;12.07;;;3.30;;
9716;SDS011;4897;43.570;27.832;2022-11-20T04:26:42;13.85;;;3.88;;
9716;SDS011;4897;43.570;27.832;2022-11-20T04:29:10;7.93;;;3.33;;
9716;SDS011;4897;43.570;27.832;2022-11-20T04:31:37;8.40;;;3.10;;
9716;SDS011;4897;43.570;27.832;2022-11-20T04:34:06;9.65;;;3.20;;
9716;SDS011;4897;43.570;27.832;2022-11-20T04:36:33;11.93;;;3.28;;
9716;SDS011;4897;43.570;27.832;2022-11-20T04:39:02;12.88;;;3.45;;
9716;SDS011;4897;43.570;27.832;2022-11-20T04:41:32;12.10;;;3.28;;
9716;SDS011;4897;43.570;27.832;2022-11-20T04:44:02;14.13;;;2.78;;
9716;SDS011;4897;43.570;27.832;2022-11-20T04:46:30;12.88;;;3.30;;
9716;SDS011;4897;43.570;27.832;2022-11-20T04:48:59;13.45;;;3.30;;
9716;SDS011;4897;43.570;27.832;2022-11-20T04:51:26;25.02;;;3.60;;
9716;SDS011;4897;43.570;27.832;2022-11-20T04:53:53;8.38;;;2.85;;
9716;SDS011;4897;43.570;27.832;2022-11-20T04:56:20;17.05;;;4.20;;
9716;SDS011;4897;43.570;27.832;2022-11-20T04:58:49;11.57;;;3.75;;
9716;SDS011;4897;43.570;27.832;2022-11-20T05:01:19;9.35;;;3.55;;
9716;SDS011;4897;43.570;27.832;2022-11-20T05:03:47;12.30;;;3.75;;
9716;SDS011;4897;43.570;27.832;2022-11-20T05:06:16;10.20;;;3.05;;
9716;SDS011;4897;43.570;27.832;2022-11-20T05:08:44;15.07;;;3.08;;
9716;SDS011;4897;43.570;27.832;2022-11-20T05:11:12;8.25;;;2.88;;
9716;SDS011;4897;43.570;27.832;2022-11-20T05:13:41;8.35;;;3.15;;
9716;SDS011;4897;43.570;27.832;2022-11-20T05:16:10;11.65;;;3.20;;
9716;SDS011;4897;43.570;27.832;2022-11-20T05:18:38;9.52;;;2.90;;
9716;SDS011;4897;43.570;27.832;2022-11-20T05:21:05;14.18;;;3.25;;
9716;SDS011;4897;43.570;27.832;2022-11-20T05:23:33;18.98;;;2.78;;
9716;SDS011;4897;43.570;27.832;2022-11-20T05:26:00;12.15;;;3.25;;
9716;SDS011;4897;43.570;27.832;2022-11-20T05:28:27;9.68;;;3.10;;
9716;SDS011;4897;43.570;27.832;2022-11-20T05:30:55;12.85;;;3.22;;
9716;SDS011;4897;43.570;27.832;2022-11-20T05:33:24;12.10;;;3.10;;
9716;SDS011;4897;43.570;27.832;2022-11-20T05:35:51;8.55;;;2.80;;
9716;SDS011;4897;43.570;27.832;2022-11-20T05:38:18;7.18;;;2.60;;
9716;SDS011;4897;43.570;27.832;2022-11-20T05:40:44;11.07;;;2.75;;
9716;SDS011;4897;43.570;27.832;2022-11-20T05:43:14;11.73;;;3.10;;
9716;SDS011;4897;43.570;27.832;2022-11-20T05:45:41;16.23;;;3.63;;
9716;SDS011;4897;43.570;27.832;2022-11-20T05:48:08;14.63;;;2.97;;
9716;SDS011;4897;43.570;27.832;2022-11-20T05:50:36;7.07;;;2.55;;
9716;SDS011;4897;43.570;27.832;2022-11-20T05:53:03;11.90;;;3.20;;
9716;SDS011;4897;43.570;27.832;2022-11-20T05:55:30;9.93;;;2.50;;
9716;SDS011;4897;43.570;27.832;2022-11-20T05:57:57;9.98;;;2.78;;
9716;SDS011;4897;43.570;27.832;2022-11-20T06:00:24;10.20;;;2.78;;
9716;SDS011;4897;43.570;27.832;2022-11-20T06:02:51;12.25;;;3.20;;
9716;SDS011;4897;43.570;27.832;2022-11-20T06:05:18;13.05;;;3.35;;
9716;SDS011;4897;43.570;27.832;2022-11-20T06:07:46;18.30;;;3.22;;
9716;SDS011;4897;43.570;27.832;2022-11-20T06:10:13;7.97;;;2.55;;
9716;SDS011;4897;43.570;27.832;2022-11-20T06:12:40;12.52;;;3.15;;
9716;SDS011;4897;43.570;27.832;2022-11-20T06:15:08;11.55;;;2.97;;
9716;SDS011;4897;43.570;27.832;2022-11-20T06:17:35;11.63;;;2.63;;
9716;SDS011;4897;43.570;27.832;2022-11-20T06:20:02;16.63;;;3.30;;
9716;SDS011;4897;43.570;27.832;2022-11-20T06:22:29;14.32;;;2.92;;
9716;SDS011;4897;43.570;27.832;2022-11-20T06:24:58;13.80;;;2.67;;
9716;SDS011;4897;43.570;27.832;2022-11-20T06:27:24;11.45;;;2.53;;
9716;SDS011;4897;43.570;27.832;2022-11-20T06:29:51;11.90;;;2.88;;
9716;SDS011;4897;43.570;27.832;2022-11-20T06:32:18;6.47;;;2.35;;
9716;SDS011;4897;43.570;27.832;2022-11-20T06:34:45;10.30;;;2.85;;
9716;SDS011;4897;43.570;27.832;2022-11-20T06:37:12;7.95;;;2.60;;
9716;SDS011;4897;43.570;27.832;2022-11-20T06:39:39;14.20;;;2.92;;
9716;SDS011;4897;43.570;27.832;2022-11-20T06:42:07;11.70;;;2.88;;
9716;SDS011;4897;43.570;27.832;2022-11-20T06:44:34;14.85;;;3.10;;
9716;SDS011;4897;43.570;27.832;2022-11-20T06:47:01;10.02;;;3.30;;
9716;SDS011;4897;43.570;27.832;2022-11-20T06:49:28;6.82;;;2.67;;
9716;SDS011;4897;43.570;27.832;2022-11-20T06:51:54;14.00;;;3.90;;
9716;SDS011;4897;43.570;27.832;2022-11-20T06:54:21;10.60;;;3.08;;
9716;SDS011;4897;43.570;27.832;2022-11-20T06:56:49;7.60;;;2.35;;
9716;SDS011;4897;43.570;27.832;2022-11-20T06:59:17;6.20;;;2.25;;
9716;SDS011;4897;43.570;27.832;2022-11-20T07:01:44;7.88;;;2.63;;
9716;SDS011;4897;43.570;27.832;2022-11-20T07:04:11;8.63;;;2.35;;
9716;SDS011;4897;43.570;27.832;2022-11-20T07:06:38;4.35;;;2.10;;
9716;SDS011;4897;43.570;27.832;2022-11-20T07:09:05;6.78;;;2.53;;
9716;SDS011;4897;43.570;27.832;2022-11-20T07:11:31;9.65;;;2.58;;
9716;SDS011;4897;43.570;27.832;2022-11-20T07:13:58;10.38;;;2.55;;
9716;SDS011;4897;43.570;27.832;2022-11-20T07:16:27;7.20;;;2.30;;
9716;SDS011;4897;43.570;27.832;2022-11-20T07:18:53;7.45;;;2.38;;
9716;SDS011;4897;43.570;27.832;2022-11-20T07:21:20;7.80;;;2.55;;
9716;SDS011;4897;43.570;27.832;2022-11-20T07:23:47;9.77;;;3.15;;
9716;SDS011;4897;43.570;27.832;2022-11-20T07:26:14;9.73;;;2.28;;
9716;SDS011;4897;43.570;27.832;2022-11-20T07:28:43;11.63;;;2.67;;
9716;SDS011;4897;43.570;27.832;2022-11-20T07:31:10;6.20;;;2.08;;
9716;SDS011;4897;43.570;27.832;2022-11-20T07:33:39;6.32;;;2.00;;
9716;SDS011;4897;43.570;27.832;2022-11-20T07:36:06;11.07;;;2.40;;
9716;SDS011;4897;43.570;27.832;2022-11-20T07:38:34;10.55;;;2.40;;
9716;SDS011;4897;43.570;27.832;2022-11-20T07:41:08;8.13;;;2.15;;
9716;SDS011;4897;43.570;27.832;2022-11-20T07:43:35;7.55;;;2.50;;
9716;SDS011;4897;43.570;27.832;2022-11-20T07:46:02;9.55;;;2.53;;
9716;SDS011;4897;43.570;27.832;2022-11-20T07:48:29;6.22;;;2.20;;
9716;SDS011;4897;43.570;27.832;2022-11-20T07:50:57;12.48;;;2.70;;
9716;SDS011;4897;43.570;27.832;2022-11-20T07:53:24;11.27;;;3.00;;
9716;SDS011;4897;43.570;27.832;2022-11-20T07:55:51;2.42;;;1.65;;
9716;SDS011;4897;43.570;27.832;2022-11-20T07:58:18;10.20;;;2.97;;
9716;SDS011;4897;43.570;27.832;2022-11-20T08:00:45;10.00;;;3.15;;
9716;SDS011;4897;43.570;27.832;2022-11-20T08:03:12;10.88;;;2.45;;
9716;SDS011;4897;43.570;27.832;2022-11-20T08:05:39;9.77;;;2.55;;
9716;SDS011;4897;43.570;27.832;2022-11-20T08:08:07;8.98;;;2.90;;
9716;SDS011;4897;43.570;27.832;2022-11-20T08:10:34;9.10;;;2.55;;
9716;SDS011;4897;43.570;27.832;2022-11-20T08:13:01;11.00;;;2.60;;
9716;SDS011;4897;43.570;27.832;2022-11-20T08:15:47;9.07;;;2.40;;
9716;SDS011;4897;43.570;27.832;2022-11-20T08:18:16;10.35;;;2.60;;
9716;SDS011;4897;43.570;27.832;2022-11-20T08:20:44;13.10;;;2.53;;
9716;SDS011;4897;43.570;27.832;2022-11-20T08:23:12;6.72;;;2.38;;
9716;SDS011;4897;43.570;27.832;2022-11-20T08:25:39;8.63;;;2.25;;
9716;SDS011;4897;43.570;27.832;2022-11-20T08:28:07;11.35;;;3.15;;
9716;SDS011;4897;43.570;27.832;2022-11-20T08:30:36;8.90;;;2.30;;
9716;SDS011;4897;43.570;27.832;2022-11-20T08:33:04;12.68;;;2.95;;
9716;SDS011;4897;43.570;27.832;2022-11-20T08:35:34;12.27;;;3.13;;
9716;SDS011;4897;43.570;27.832;2022-11-20T08:38:01;10.32;;;2.70;;
9716;SDS011;4897;43.570;27.832;2022-11-20T08:40:30;14.38;;;2.63;;
9716;SDS011;4897;43.570;27.832;2022-11-20T08:42:57;15.07;;;2.75;;
9716;SDS011;4897;43.570;27.832;2022-11-20T08:45:26;7.50;;;2.50;;
9716;SDS011;4897;43.570;27.832;2022-11-20T08:47:53;10.10;;;2.50;;
9716;SDS011;4897;43.570;27.832;2022-11-20T08:50:25;15.70;;;2.90;;
9716;SDS011;4897;43.570;27.832;2022-11-20T08:52:52;10.93;;;2.60;;
9716;SDS011;4897;43.570;27.832;2022-11-20T08:55:19;11.70;;;2.63;;
9716;SDS011;4897;43.570;27.832;2022-11-20T08:57:47;13.60;;;3.10;;
9716;SDS011;4897;43.570;27.832;2022-11-20T09:00:15;13.70;;;2.97;;
9716;SDS011;4897;43.570;27.832;2022-11-20T09:02:42;11.02;;;3.25;;
9716;SDS011;4897;43.570;27.832;2022-11-20T09:05:09;13.05;;;3.10;;
9716;SDS011;4897;43.570;27.832;2022-11-20T09:07:36;8.65;;;2.40;;
9716;SDS011;4897;43.570;27.832;2022-11-20T09:10:03;7.82;;;2.40;;
9716;SDS011;4897;43.570;27.832;2022-11-20T09:12:32;9.15;;;3.20;;
9716;SDS011;4897;43.570;27.832;2022-11-20T09:15:01;14.77;;;2.88;;
9716;SDS011;4897;43.570;27.832;2022-11-20T09:17:28;6.82;;;2.28;;
9716;SDS011;4897;43.570;27.832;2022-11-20T09:19:55;6.78;;;2.58;;
9716;SDS011;4897;43.570;27.832;2022-11-20T09:22:22;8.77;;;2.63;;
9716;SDS011;4897;43.570;27.832;2022-11-20T09:24:49;11.10;;;3.30;;
9716;SDS011;4897;43.570;27.832;2022-11-20T09:27:15;7.55;;;2.47;;
9716;SDS011;4897;43.570;27.832;2022-11-20T09:29:45;11.25;;;3.90;;
9716;SDS011;4897;43.570;27.832;2022-11-20T09:32:14;9.75;;;2.65;;
9716;SDS011;4897;43.570;27.832;2022-11-20T09:34:41;7.25;;;2.17;;
9716;SDS011;4897;43.570;27.832;2022-11-20T09:37:08;9.55;;;3.33;;
9716;SDS011;4897;43.570;27.832;2022-11-20T09:39:35;11.68;;;3.30;;
9716;SDS011;4897;43.570;27.832;2022-11-20T09:45:01;5.05;;;2.15;;
9716;SDS011;4897;43.570;27.832;2022-11-20T09:47:46;11.48;;;2.22;;
9716;SDS011;4897;43.570;27.832;2022-11-20T09:50:26;11.98;;;3.00;;
9716;SDS011;4897;43.570;27.832;2022-11-20T09:53:09;13.55;;;3.15;;
9716;SDS011;4897;43.570;27.832;2022-11-20T09:55:39;11.80;;;2.72;;
9716;SDS011;4897;43.570;27.832;2022-11-20T09:58:07;9.85;;;2.40;;
9716;SDS011;4897;43.570;27.832;2022-11-20T10:00:39;12.18;;;2.63;;
9716;SDS011;4897;43.570;27.832;2022-11-20T10:03:11;15.75;;;3.67;;
9716;SDS011;4897;43.570;27.832;2022-11-20T10:05:41;11.93;;;2.47;;
9716;SDS011;4897;43.570;27.832;2022-11-20T10:08:14;13.57;;;2.97;;
9716;SDS011;4897;43.570;27.832;2022-11-20T10:10:47;12.50;;;3.45;;
9716;SDS011;4897;43.570;27.832;2022-11-20T10:13:30;10.77;;;2.63;;
9716;SDS011;4897;43.570;27.832;2022-11-20T10:16:09;14.98;;;3.50;;
9716;SDS011;4897;43.570;27.832;2022-11-20T10:18:48;11.38;;;3.00;;
9716;SDS011;4897;43.570;27.832;2022-11-20T10:21:35;12.55;;;3.08;;
9716;SDS011;4897;43.570;27.832;2022-11-20T10:27:10;12.68;;;2.53;;
9716;SDS011;4897;43.570;27.832;2022-11-20T10:30:00;11.32;;;3.00;;
9716;SDS011;4897;43.570;27.832;2022-11-20T10:32:31;9.55;;;3.05;;
9716;SDS011;4897;43.570;27.832;2022-11-20T10:35:06;10.35;;;3.10;;
9716;SDS011;4897;43.570;27.832;2022-11-20T10:37:44;10.65;;;2.80;;
9716;SDS011;4897;43.570;27.832;2022-11-20T10:40:18;12.10;;;3.40;;
9716;SDS011;4897;43.570;27.832;2022-11-20T10:42:51;13.18;;;3.33;;
9716;SDS011;4897;43.570;27.832;2022-11-20T10:45:27;12.38;;;3.47;;
9716;SDS011;4897;43.570;27.832;2022-11-20T10:48:07;11.63;;;2.90;;
9716;SDS011;4897;43.570;27.832;2022-11-20T10:50:43;10.65;;;3.20;;
9716;SDS011;4897;43.570;27.832;2022-11-20T10:53:26;12.70;;;3.92;;
9716;SDS011;4897;43.570;27.832;2022-11-20T10:56:14;11.07;;;3.15;;
9716;SDS011;4897;43.570;27.832;2022-11-20T10:58:46;8.60;;;3.25;;
9716;SDS011;4897;43.570;27.832;2022-11-20T11:01:25;10.85;;;3.30;;
9716;SDS011;4897;43.570;27.832;2022-11-20T11:03:52;7.88;;;2.85;;
9716;SDS011;4897;43.570;27.832;2022-11-20T11:06:24;11.95;;;3.30;;
9716;SDS011;4897;43.570;27.832;2022-11-20T11:08:58;14.63;;;3.22;;
9716;SDS011;4897;43.570;27.832;2022-11-20T11:11:30;11.40;;;3.30;;
9716;SDS011;4897;43.570;27.832;2022-11-20T11:14:06;17.73;;;3.90;;
9716;SDS011;4897;43.570;27.832;2022-11-20T11:16:33;11.45;;;6.95;;
9716;SDS011;4897;43.570;27.832;2022-11-20T11:19:04;10.95;;;7.47;;
9716;SDS011;4897;43.570;27.832;2022-11-20T11:21:33;17.45;;;9.10;;
9716;SDS011;4897;43.570;27.832;2022-11-20T11:24:01;15.05;;;10.60;;
9716;SDS011;4897;43.570;27.832;2022-11-20T11:26:30;21.60;;;11.20;;
9716;SDS011;4897;43.570;27.832;2022-11-20T11:28:57;19.00;;;11.77;;
9716;SDS011;4897;43.570;27.832;2022-11-20T11:31:25;22.20;;;13.20;;
9716;SDS011;4897;43.570;27.832;2022-11-20T11:34:03;20.92;;;12.38;;
9716;SDS011;4897;43.570;27.832;2022-11-20T11:36:35;21.92;;;13.48;;
9716;SDS011;4897;43.570;27.832;2022-11-20T11:39:03;21.83;;;13.80;;
9716;SDS011;4897;43.570;27.832;2022-11-20T11:41:32;19.63;;;13.75;;
9716;SDS011;4897;43.570;27.832;2022-11-20T11:44:02;19.75;;;13.57;;
9716;SDS011;4897;43.570;27.832;2022-11-20T11:47:01;21.85;;;13.63;;
9716;SDS011;4897;43.570;27.832;2022-11-20T11:49:30;23.80;;;14.75;;
9716;SDS011;4897;43.570;27.832;2022-11-20T11:52:03;24.88;;;16.05;;
9716;SDS011;4897;43.570;27.832;2022-11-20T11:54:41;23.33;;;15.50;;
9716;SDS011;4897;43.570;27.832;2022-11-20T11:57:13;19.38;;;13.40;;
9716;SDS011;4897;43.570;27.832;2022-11-20T11:59:51;23.08;;;15.30;;
9716;SDS011;4897;43.570;27.832;2022-11-20T12:02:35;21.60;;;14.98;;
9716;SDS011;4897;43.570;27.832;2022-11-20T12:05:08;23.00;;;13.52;;
9716;SDS011;4897;43.570;27.832;2022-11-20T12:07:45;21.08;;;14.30;;
9716;SDS011;4897;43.570;27.832;2022-11-20T12:10:19;20.98;;;14.10;;
9716;SDS011;4897;43.570;27.832;2022-11-20T12:12:49;21.88;;;13.68;;
9716;SDS011;4897;43.570;27.832;2022-11-20T12:15:22;21.15;;;14.25;;
9716;SDS011;4897;43.570;27.832;2022-11-20T12:17:55;19.85;;;12.60;;
9716;SDS011;4897;43.570;27.832;2022-11-20T12:20:22;17.92;;;12.40;;
9716;SDS011;4897;43.570;27.832;2022-11-20T12:22:58;18.20;;;11.68;;
9716;SDS011;4897;43.570;27.832;2022-11-20T12:25:34;18.45;;;11.02;;
9716;SDS011;4897;43.570;27.832;2022-11-20T12:28:14;21.10;;;11.30;;
9716;SDS011;4897;43.570;27.832;2022-11-20T12:31:18;19.15;;;11.73;;
9716;SDS011;4897;43.570;27.832;2022-11-20T12:34:01;13.45;;;9.07;;
9716;SDS011;4897;43.570;27.832;2022-11-20T12:36:41;16.80;;;9.68;;
9716;SDS011;4897;43.570;27.832;2022-11-20T12:39:20;12.20;;;8.23;;
9716;SDS011;4897;43.570;27.832;2022-11-20T12:42:01;12.93;;;9.15;;
9716;SDS011;4897;43.570;27.832;2022-11-20T12:45:02;13.52;;;8.40;;
9716;SDS011;4897;43.570;27.832;2022-11-20T12:47:52;13.38;;;9.10;;
9716;SDS011;4897;43.570;27.832;2022-11-20T12:50:32;24.40;;;11.52;;
9716;SDS011;4897;43.570;27.832;2022-11-20T12:53:09;17.65;;;12.48;;
9716;SDS011;4897;43.570;27.832;2022-11-20T12:55:49;22.88;;;11.85;;
9716;SDS011;4897;43.570;27.832;2022-11-20T12:58:26;22.70;;;14.23;;
9716;SDS011;4897;43.570;27.832;2022-11-20T13:01:04;14.73;;;9.07;;
9716;SDS011;4897;43.570;27.832;2022-11-20T13:04:00;24.02;;;11.05;;
9716;SDS011;4897;43.570;27.832;2022-11-20T13:06:38;23.40;;;9.93;;
9716;SDS011;4897;43.570;27.832;2022-11-20T13:09:06;21.92;;;11.18;;
9716;SDS011;4897;43.570;27.832;2022-11-20T13:11:40;24.05;;;13.25;;
9716;SDS011;4897;43.570;27.832;2022-11-20T13:14:20;26.75;;;16.50;;
9716;SDS011;4897;43.570;27.832;2022-11-20T13:16:58;32.25;;;19.05;;
9716;SDS011;4897;43.570;27.832;2022-11-20T13:19:31;26.05;;;16.77;;
9716;SDS011;4897;43.570;27.832;2022-11-20T13:21:58;21.73;;;13.25;;
9716;SDS011;4897;43.570;27.832;2022-11-20T13:24:26;27.02;;;12.75;;
9716;SDS011;4897;43.570;27.832;2022-11-20T13:27:03;18.42;;;12.18;;
9716;SDS011;4897;43.570;27.832;2022-11-20T13:29:32;22.83;;;13.18;;
9716;SDS011;4897;43.570;27.832;2022-11-20T13:32:04;20.65;;;13.18;;
9716;SDS011;4897;43.570;27.832;2022-11-20T13:34:33;22.67;;;13.15;;
9716;SDS011;4897;43.570;27.832;2022-11-20T13:37:01;27.67;;;14.32;;
9716;SDS011;4897;43.570;27.832;2022-11-20T13:39:30;24.88;;;13.63;;
9716;SDS011;4897;43.570;27.832;2022-11-20T13:42:03;22.55;;;14.52;;
9716;SDS011;4897;43.570;27.832;2022-11-20T13:44:51;20.80;;;13.55;;
9716;SDS011;4897;43.570;27.832;2022-11-20T13:47:21;21.45;;;13.15;;
9716;SDS011;4897;43.570;27.832;2022-11-20T13:49:49;22.45;;;12.23;;
9716;SDS011;4897;43.570;27.832;2022-11-20T13:52:32;21.65;;;12.73;;
9716;SDS011;4897;43.570;27.832;2022-11-20T13:55:13;20.25;;;11.73;;
9716;SDS011;4897;43.570;27.832;2022-11-20T14:00:43;17.23;;;11.13;;
9716;SDS011;4897;43.570;27.832;2022-11-20T14:03:16;14.43;;;11.00;;
9716;SDS011;4897;43.570;27.832;2022-11-20T14:05:48;21.77;;;11.48;;
9716;SDS011;4897;43.570;27.832;2022-11-20T14:08:23;14.52;;;10.40;;
9716;SDS011;4897;43.570;27.832;2022-11-20T14:11:02;20.98;;;10.90;;
9716;SDS011;4897;43.570;27.832;2022-11-20T14:13:31;19.58;;;9.98;;
9716;SDS011;4897;43.570;27.832;2022-11-20T14:15:58;17.60;;;9.70;;
9716;SDS011;4897;43.570;27.832;2022-11-20T14:18:26;21.00;;;9.63;;
9716;SDS011;4897;43.570;27.832;2022-11-20T14:20:53;21.00;;;10.60;;
9716;SDS011;4897;43.570;27.832;2022-11-20T14:23:24;15.77;;;10.77;;
9716;SDS011;4897;43.570;27.832;2022-11-20T14:25:52;20.98;;;11.65;;
9716;SDS011;4897;43.570;27.832;2022-11-20T14:28:21;20.42;;;11.13;;
9716;SDS011;4897;43.570;27.832;2022-11-20T14:30:54;19.55;;;12.25;;
9716;SDS011;4897;43.570;27.832;2022-11-20T14:33:22;24.60;;;13.25;;
9716;SDS011;4897;43.570;27.832;2022-11-20T14:35:51;38.25;;;20.85;;
9716;SDS011;4897;43.570;27.832;2022-11-20T14:38:22;35.92;;;20.40;;
9716;SDS011;4897;43.570;27.832;2022-11-20T14:40:52;32.83;;;19.38;;
9716;SDS011;4897;43.570;27.832;2022-11-20T14:43:21;36.60;;;22.63;;
9716;SDS011;4897;43.570;27.832;2022-11-20T14:45:54;45.92;;;26.67;;
9716;SDS011;4897;43.570;27.832;2022-11-20T14:48:24;44.30;;;28.30;;
9716;SDS011;4897;43.570;27.832;2022-11-20T14:50:56;53.03;;;30.30;;
9716;SDS011;4897;43.570;27.832;2022-11-20T14:53:23;46.20;;;28.30;;
9716;SDS011;4897;43.570;27.832;2022-11-20T14:55:55;28.55;;;17.17;;
9716;SDS011;4897;43.570;27.832;2022-11-20T14:58:24;34.55;;;19.02;;
9716;SDS011;4897;43.570;27.832;2022-11-20T15:00:54;29.63;;;17.42;;
9716;SDS011;4897;43.570;27.832;2022-11-20T15:03:23;28.63;;;15.98;;
9716;SDS011;4897;43.570;27.832;2022-11-20T15:05:58;19.75;;;12.73;;
9716;SDS011;4897;43.570;27.832;2022-11-20T15:08:25;23.58;;;12.05;;
9716;SDS011;4897;43.570;27.832;2022-11-20T15:10:54;24.75;;;12.20;;
9716;SDS011;4897;43.570;27.832;2022-11-20T15:13:24;25.67;;;11.23;;
9716;SDS011;4897;43.570;27.832;2022-11-20T15:15:55;26.40;;;11.57;;